Time;durP1;ratioP1;P1;durP2;ratioP2;P2;SDS_P1;SDS_P2;PMS_P1;PMS_P2;Temp;Humidity;BMP_temperature;BMP_pressure;BME280_temperature;BME280_humidity;BME280_pressure;Samples;Min_cycle;Max_cycle;Signal;HPM_P1;HPM_P2
2021/06/23 00:00:51;;;;;;;9.03;3.07;;;24.10;57.30;;;;;;5083366;28;20233;-67
2021/06/23 00:03:18;;;;;;;8.63;2.73;;;24.10;57.20;;;;;;5085777;28;20210;-67
2021/06/23 00:05:46;;;;;;;8.40;2.90;;;24.10;57.20;;;;;;5083357;28;20217;-67
2021/06/23 00:08:22;;;;;;;10.67;2.40;;;24.10;57.20;;;;;;5086678;28;20209;-67
2021/06/23 00:10:51;;;;;;;8.70;2.63;;;24.00;57.10;;;;;;5087080;28;20220;-67
2021/06/23 00:13:22;;;;;;;4.70;2.40;;;24.00;57.10;;;;;;5087108;28;20695;-67
2021/06/23 00:15:49;;;;;;;12.80;3.33;;;23.90;57.10;;;;;;5087152;28;20275;-67
2021/06/23 00:18:16;;;;;;;12.50;3.37;;;23.90;57.40;;;;;;5080794;28;20271;-67
2021/06/23 00:20:43;;;;;;;12.67;3.30;;;23.90;57.60;;;;;;5085864;28;20232;-67
2021/06/23 00:23:10;;;;;;;9.97;2.27;;;23.80;57.60;;;;;;5086895;28;20213;-67
2021/06/23 00:25:37;;;;;;;9.73;3.00;;;23.80;57.70;;;;;;5086830;28;20610;-67
2021/06/23 00:28:04;;;;;;;7.00;2.50;;;23.80;57.70;;;;;;5087388;28;20235;-67
2021/06/23 00:30:31;;;;;;;11.27;2.80;;;23.80;57.70;;;;;;5084040;28;20724;-67
2021/06/23 00:33:06;;;;;;;8.93;2.53;;;23.80;57.60;;;;;;5084764;28;20222;-67
2021/06/23 00:35:34;;;;;;;8.90;3.00;;;23.80;57.40;;;;;;5088653;28;20220;-67
2021/06/23 00:38:02;;;;;;;8.27;3.20;;;23.80;57.40;;;;;;5084572;28;20217;-67
2021/06/23 00:40:30;;;;;;;6.40;2.60;;;23.90;57.10;;;;;;5086134;28;20236;-67
2021/06/23 00:42:57;;;;;;;9.80;2.70;;;23.90;57.00;;;;;;5086764;28;20254;-67
2021/06/23 00:45:24;;;;;;;6.20;2.43;;;23.90;56.70;;;;;;5083991;28;20221;-67
2021/06/23 00:47:54;;;;;;;5.93;2.40;;;23.90;56.60;;;;;;5082880;28;20210;-67
2021/06/23 00:50:21;;;;;;;10.07;2.50;;;23.90;56.60;;;;;;5088204;28;20220;-67
2021/06/23 00:52:51;;;;;;;7.23;2.90;;;24.00;56.70;;;;;;5083836;28;20685;-67
2021/06/23 00:55:22;;;;;;;10.07;3.53;;;24.00;56.80;;;;;;5084798;28;20221;-67
2021/06/23 00:57:51;;;;;;;9.57;2.70;;;23.90;56.80;;;;;;5086904;28;20259;-67
2021/06/23 01:00:27;;;;;;;11.73;3.10;;;23.90;56.80;;;;;;5083340;28;20245;-67
2021/06/23 01:02:55;;;;;;;10.13;3.03;;;23.90;57.30;;;;;;5074538;28;20263;-67
2021/06/23 01:05:23;;;;;;;8.77;2.87;;;23.80;57.40;;;;;;5074679;28;20217;-67
2021/06/23 01:07:50;;;;;;;12.40;3.37;;;23.80;57.70;;;;;;5074548;28;20213;-67
2021/06/23 01:10:17;;;;;;;6.83;2.93;;;23.70;57.50;;;;;;5074482;28;20217;-67
2021/06/23 01:12:56;;;;;;;10.77;3.30;;;23.70;57.50;;;;;;5081117;28;20212;-67
2021/06/23 01:15:24;;;;;;;8.60;3.53;;;23.70;57.70;;;;;;5084517;28;20235;-67
2021/06/23 01:17:52;;;;;;;11.70;3.47;;;23.60;58.10;;;;;;5082736;28;20217;-67
2021/06/23 01:20:20;;;;;;;10.00;3.37;;;23.50;58.40;;;;;;5082911;28;20639;-67
2021/06/23 01:22:47;;;;;;;9.83;3.53;;;23.40;58.80;;;;;;5084894;28;20205;-67
2021/06/23 01:25:15;;;;;;;13.93;3.73;;;23.30;59.30;;;;;;5085720;28;20229;-67
2021/06/23 01:27:43;;;;;;;7.23;3.27;;;23.10;59.80;;;;;;5085793;28;20220;-67
2021/06/23 01:30:13;;;;;;;5.40;3.07;;;23.00;60.00;;;;;;5082113;28;20205;-67
2021/06/23 01:32:40;;;;;;;10.90;3.60;;;22.90;60.30;;;;;;5085538;28;20220;-67
2021/06/23 01:35:08;;;;;;;7.40;3.33;;;22.90;60.50;;;;;;5082004;28;20208;-67
2021/06/23 01:37:35;;;;;;;11.47;3.20;;;22.80;61.30;;;;;;5081435;28;20247;-67
2021/06/23 01:40:03;;;;;;;16.33;3.93;;;22.70;61.00;;;;;;5084525;28;20221;-67
2021/06/23 01:42:30;;;;;;;9.53;3.30;;;22.70;61.30;;;;;;5083037;28;20237;-67
2021/06/23 01:45:00;;;;;;;14.50;4.77;;;22.60;61.60;;;;;;5083965;28;20524;-67
2021/06/23 01:47:27;;;;;;;10.03;3.50;;;22.50;62.00;;;;;;5081796;28;20700;-67
2021/06/23 01:49:54;;;;;;;13.57;3.60;;;22.40;62.30;;;;;;5087863;28;20210;-67
2021/06/23 01:52:21;;;;;;;10.23;3.63;;;22.40;62.50;;;;;;5086689;28;20217;-67
2021/06/23 01:54:50;;;;;;;8.00;3.30;;;22.30;62.80;;;;;;5085746;28;20216;-67
2021/06/23 01:57:17;;;;;;;11.83;3.90;;;22.20;63.10;;;;;;5084245;28;20217;-67
2021/06/23 01:59:45;;;;;;;9.40;4.00;;;22.10;63.60;;;;;;5082392;28;20209;-67
2021/06/23 02:02:27;;;;;;;7.10;3.50;;;22.00;63.90;;;;;;5084150;28;20743;-67
2021/06/23 02:05:18;;;;;;;10.03;4.40;;;21.90;64.30;;;;;;5081481;28;20212;-67
2021/06/23 02:07:54;;;;;;;10.80;4.37;;;21.80;64.90;;;;;;5077089;28;20278;-67
2021/06/23 02:11:06;;;;;;;12.90;4.10;;;21.80;65.40;;;;;;5086248;28;20220;-67
2021/06/23 02:13:53;;;;;;;8.77;3.50;;;21.80;65.60;;;;;;5078956;28;20665;-67
2021/06/23 02:16:24;;;;;;;10.27;3.53;;;21.80;65.80;;;;;;5084831;28;20266;-67
2021/06/23 02:18:51;;;;;;;9.90;3.57;;;21.80;65.80;;;;;;5082692;28;20214;-67
2021/06/23 02:21:18;;;;;;;15.30;4.50;;;21.80;66.00;;;;;;5085949;28;20662;-67
2021/06/23 02:23:46;;;;;;;12.07;4.37;;;21.80;66.00;;;;;;5085855;28;20231;-67
2021/06/23 02:26:14;;;;;;;12.07;3.50;;;21.80;66.00;;;;;;5086553;28;20566;-67
2021/06/23 02:28:41;;;;;;;9.90;3.87;;;21.70;66.10;;;;;;5080920;28;20619;-67
2021/06/23 02:31:11;;;;;;;14.10;3.67;;;21.70;66.50;;;;;;5084811;28;20221;-67
2021/06/23 02:33:40;;;;;;;6.80;3.07;;;21.70;67.40;;;;;;5082795;28;20635;-67
2021/06/23 02:36:08;;;;;;;12.23;4.17;;;21.70;66.80;;;;;;5082218;28;20217;-67
2021/06/23 02:38:35;;;;;;;9.07;4.00;;;21.60;67.00;;;;;;5084837;28;20217;-67
2021/06/23 02:41:02;;;;;;;10.23;4.13;;;21.60;67.30;;;;;;5080563;28;20279;-67
2021/06/23 02:43:30;;;;;;;12.47;3.73;;;21.60;67.50;;;;;;5087239;28;20201;-67
2021/06/23 02:45:57;;;;;;;10.00;3.30;;;21.60;67.50;;;;;;5084307;28;20216;-67
2021/06/23 02:48:26;;;;;;;11.13;4.23;;;21.60;67.80;;;;;;5085555;28;20206;-67
2021/06/23 02:51:05;;;;;;;10.43;4.83;;;21.60;67.90;;;;;;5081186;28;20282;-67
2021/06/23 02:53:33;;;;;;;11.53;4.03;;;21.60;68.20;;;;;;5081763;28;20220;-67
2021/06/23 02:56:00;;;;;;;14.10;4.23;;;21.60;68.40;;;;;;5080889;28;20221;-67
2021/06/23 02:58:31;;;;;;;27.37;6.20;;;21.60;68.70;;;;;;5077869;28;20213;-67
2021/06/23 03:00:59;;;;;;;10.70;4.40;;;21.60;68.70;;;;;;5084124;28;20240;-67
2021/06/23 03:03:26;;;;;;;15.43;4.10;;;21.60;68.60;;;;;;5081656;28;20220;-67
2021/06/23 03:05:53;;;;;;;10.33;3.93;;;21.60;68.40;;;;;;5081724;28;20299;-67
2021/06/23 03:08:20;;;;;;;9.90;3.47;;;21.60;68.30;;;;;;5081756;28;20743;-67
2021/06/23 03:10:47;;;;;;;7.47;4.03;;;21.60;68.40;;;;;;5075034;28;20257;-67
2021/06/23 03:13:14;;;;;;;7.07;3.13;;;21.60;68.90;;;;;;5090264;28;20618;-67
2021/06/23 03:15:41;;;;;;;9.37;4.07;;;21.50;68.90;;;;;;5081485;28;20248;-67
2021/06/23 03:18:08;;;;;;;7.77;4.10;;;21.50;68.40;;;;;;5079383;28;20650;-67
2021/06/23 03:20:35;;;;;;;8.33;3.70;;;21.50;68.50;;;;;;5082415;28;20218;-67
2021/06/23 03:23:02;;;;;;;10.10;4.07;;;21.40;68.70;;;;;;5081821;28;20209;-67
2021/06/23 03:25:30;;;;;;;7.27;4.20;;;21.40;68.70;;;;;;5081179;28;20728;-67
2021/06/23 03:28:02;;;;;;;13.43;4.27;;;21.20;68.60;;;;;;5084801;28;20223;-67
2021/06/23 03:30:30;;;;;;;16.93;4.10;;;21.20;69.00;;;;;;5085068;28;20209;-67
2021/06/23 03:32:58;;;;;;;9.13;3.70;;;21.10;69.40;;;;;;5085143;28;20209;-67
2021/06/23 03:35:26;;;;;;;14.70;4.53;;;21.10;69.40;;;;;;5081668;28;20209;-67
2021/06/23 03:37:54;;;;;;;10.20;3.63;;;21.00;69.30;;;;;;5084284;28;20213;-67
2021/06/23 03:40:23;;;;;;;12.07;4.20;;;21.10;69.30;;;;;;5081579;28;20224;-67
2021/06/23 03:42:52;;;;;;;9.90;3.90;;;21.10;69.00;;;;;;5081172;28;20249;-68
2021/06/23 03:45:39;;;;;;;11.93;4.90;;;21.00;68.90;;;;;;5083594;28;20212;-67
2021/06/23 03:48:07;;;;;;;10.37;4.70;;;21.00;68.70;;;;;;5079894;28;20259;-67
2021/06/23 03:50:34;;;;;;;10.87;4.20;;;21.00;68.60;;;;;;5082234;28;20214;-67
2021/06/23 03:53:01;;;;;;;6.83;4.27;;;21.00;68.60;;;;;;5083904;28;20255;-67
2021/06/23 03:55:29;;;;;;;14.57;4.80;;;21.00;68.40;;;;;;5082025;28;20825;-67
2021/06/23 03:57:56;;;;;;;9.23;2.97;;;21.00;68.40;;;;;;5083648;28;20209;-67
2021/06/23 04:00:26;;;;;;;8.70;3.50;;;21.00;68.40;;;;;;5077062;28;20224;-67
2021/06/23 04:02:55;;;;;;;18.93;4.43;;;21.10;68.60;;;;;;5082414;28;20320;-67
2021/06/23 04:05:22;;;;;;;9.33;4.03;;;21.10;68.40;;;;;;5085069;28;20217;-67
2021/06/23 04:07:49;;;;;;;15.67;4.00;;;21.10;68.40;;;;;;5084498;28;20214;-67
2021/06/23 04:10:17;;;;;;;20.97;5.20;;;21.20;68.50;;;;;;5085953;28;20224;-67
2021/06/23 04:12:45;;;;;;;11.67;4.17;;;21.20;68.60;;;;;;5085366;28;20259;-66
2021/06/23 04:15:15;;;;;;;8.90;4.53;;;21.20;68.60;;;;;;5084563;28;20252;-67
2021/06/23 04:17:43;;;;;;;10.83;3.93;;;21.30;68.80;;;;;;5084331;28;20221;-67
2021/06/23 04:20:11;;;;;;;9.13;4.37;;;21.40;68.90;;;;;;5084204;28;20218;-67
2021/06/23 04:22:38;;;;;;;7.80;4.00;;;21.40;68.70;;;;;;5086398;28;20229;-67
2021/06/23 04:25:10;;;;;;;9.93;4.63;;;21.50;68.50;;;;;;5086983;28;20627;-67
2021/06/23 04:27:38;;;;;;;15.77;4.93;;;21.60;68.50;;;;;;5084549;28;20222;-67
2021/06/23 04:30:08;;;;;;;13.43;4.67;;;21.60;68.50;;;;;;5084359;28;20275;-67
2021/06/23 04:32:35;;;;;;;16.77;4.57;;;21.60;68.50;;;;;;5083963;28;20293;-67
2021/06/23 04:35:05;;;;;;;13.03;4.93;;;21.70;68.60;;;;;;5084842;28;20209;-67
2021/06/23 04:37:35;;;;;;;10.93;4.30;;;21.80;68.60;;;;;;5084178;28;21124;-67
2021/06/23 04:40:06;;;;;;;10.97;4.73;;;21.90;68.50;;;;;;5075445;28;20604;-67
2021/06/23 04:42:33;;;;;;;6.53;4.20;;;22.10;68.50;;;;;;5075288;28;20707;-67
2021/06/23 04:45:00;;;;;;;8.73;4.50;;;22.20;68.30;;;;;;5075075;28;20237;-67
2021/06/23 04:47:27;;;;;;;12.53;4.53;;;22.40;68.00;;;;;;5077108;28;20214;-67
2021/06/23 04:49:54;;;;;;;7.43;3.97;;;22.50;67.80;;;;;;5087396;28;20652;-67
2021/06/23 04:52:21;;;;;;;19.90;4.27;;;22.60;67.60;;;;;;5083392;28;20222;-67
2021/06/23 04:54:49;;;;;;;9.40;3.67;;;22.70;67.30;;;;;;5083807;28;20221;-67
2021/06/23 04:57:17;;;;;;;9.67;4.37;;;22.90;67.10;;;;;;5084605;28;20282;-67
2021/06/23 04:59:44;;;;;;;12.63;4.27;;;22.90;66.70;;;;;;5083094;28;20377;-67
2021/06/23 05:02:12;;;;;;;14.67;4.07;;;23.10;66.30;;;;;;5082813;28;20233;-67
2021/06/23 05:04:39;;;;;;;6.87;3.60;;;23.20;65.70;;;;;;5084059;28;20241;-67
2021/06/23 05:07:07;;;;;;;10.43;3.70;;;23.30;65.30;;;;;;5086315;28;20209;-67
2021/06/23 05:09:39;;;;;;;14.33;3.90;;;23.40;64.80;;;;;;5084647;28;20209;-67
2021/06/23 05:12:08;;;;;;;14.57;4.43;;;23.60;64.20;;;;;;5083282;28;20209;-67
2021/06/23 05:14:36;;;;;;;10.77;3.80;;;23.70;63.70;;;;;;5086968;28;20268;-67
2021/06/23 05:17:04;;;;;;;14.90;4.13;;;23.90;63.40;;;;;;5085296;28;20257;-67
2021/06/23 05:19:33;;;;;;;13.10;4.40;;;24.00;63.10;;;;;;5082656;28;20620;-67
2021/06/23 05:22:01;;;;;;;14.53;4.37;;;24.10;62.70;;;;;;5084810;28;20236;-67
2021/06/23 05:24:28;;;;;;;10.17;4.30;;;24.20;62.60;;;;;;5085882;28;20642;-67
2021/06/23 05:26:55;;;;;;;12.23;4.13;;;24.30;62.30;;;;;;5082823;28;20214;-67
2021/06/23 05:29:22;;;;;;;8.87;3.83;;;24.50;62.10;;;;;;5084608;28;20209;-67
2021/06/23 05:31:49;;;;;;;12.27;4.43;;;24.60;61.50;;;;;;5085033;28;20228;-67
2021/06/23 05:34:16;;;;;;;8.80;3.77;;;24.70;61.20;;;;;;5080673;28;20251;-67
2021/06/23 05:36:44;;;;;;;22.70;4.20;;;24.80;60.80;;;;;;5081714;28;20217;-67
2021/06/23 05:39:11;;;;;;;10.90;4.30;;;25.00;60.40;;;;;;5085035;28;20576;-67
2021/06/23 05:41:38;;;;;;;12.63;4.57;;;25.20;60.20;;;;;;5082479;28;20500;-67
2021/06/23 05:44:05;;;;;;;8.43;4.67;;;25.30;59.90;;;;;;5084260;28;20585;-67
2021/06/23 05:46:32;;;;;;;12.60;4.47;;;25.50;59.40;;;;;;5084882;28;20213;-67
2021/06/23 05:48:59;;;;;;;9.00;3.80;;;25.60;59.00;;;;;;5080402;28;20213;-67
2021/06/23 05:51:26;;;;;;;9.53;3.93;;;25.80;58.90;;;;;;5084234;28;20288;-67
2021/06/23 05:53:53;;;;;;;12.53;5.07;;;25.90;58.60;;;;;;5084410;28;20266;-67
2021/06/23 05:56:20;;;;;;;9.73;4.50;;;26.00;58.30;;;;;;5080964;28;20206;-67
2021/06/23 05:58:47;;;;;;;7.50;4.10;;;26.10;58.10;;;;;;5082913;28;20290;-67
2021/06/23 06:01:14;;;;;;;8.27;4.07;;;26.20;58.10;;;;;;5081362;28;20214;-67
2021/06/23 06:03:41;;;;;;;10.37;4.10;;;26.40;57.90;;;;;;5084886;28;20319;-67
2021/06/23 06:06:08;;;;;;;11.60;3.90;;;26.40;57.60;;;;;;5082046;28;20209;-67
2021/06/23 06:08:35;;;;;;;7.43;3.43;;;26.50;57.30;;;;;;5082804;28;20278;-68
2021/06/23 06:11:02;;;;;;;11.27;4.40;;;26.70;57.50;;;;;;5084753;28;20216;-67
2021/06/23 06:13:30;;;;;;;12.83;4.27;;;26.70;57.20;;;;;;5084071;28;20209;-67
2021/06/23 06:15:56;;;;;;;12.40;4.10;;;26.90;57.00;;;;;;5084376;28;20213;-67
2021/06/23 06:18:24;;;;;;;9.50;4.03;;;27.10;56.90;;;;;;5084503;28;20220;-67
2021/06/23 06:20:57;;;;;;;14.27;3.87;;;27.30;56.50;;;;;;5082866;28;20884;-68
2021/06/23 06:23:25;;;;;;;10.17;4.27;;;27.40;56.20;;;;;;5081901;28;20662;-67
2021/06/23 06:25:53;;;;;;;8.07;4.07;;;27.50;55.90;;;;;;5083674;28;20614;-67
2021/06/23 06:28:20;;;;;;;10.10;4.63;;;27.70;55.50;;;;;;5083670;28;20266;-67
2021/06/23 06:30:48;;;;;;;9.07;4.00;;;27.80;55.20;;;;;;5081400;28;20240;-67
2021/06/23 06:33:15;;;;;;;11.53;4.03;;;27.90;55.00;;;;;;5082766;28;20271;-67
2021/06/23 06:35:42;;;;;;;10.47;4.77;;;28.00;55.00;;;;;;5081745;28;20213;-67
2021/06/23 06:38:09;;;;;;;14.00;4.87;;;28.20;54.30;;;;;;5081715;28;20222;-67
2021/06/23 06:40:36;;;;;;;7.00;4.20;;;28.30;54.50;;;;;;5083978;28;20228;-67
2021/06/23 06:43:04;;;;;;;10.67;3.70;;;28.40;54.40;;;;;;5080760;28;20225;-67
2021/06/23 06:45:32;;;;;;;6.77;3.70;;;28.60;54.60;;;;;;5084372;28;20213;-67
2021/06/23 06:47:59;;;;;;;7.57;4.30;;;28.70;54.20;;;;;;5083033;28;20221;-67
2021/06/23 06:50:26;;;;;;;7.83;3.97;;;28.80;53.60;;;;;;5082817;28;20214;-67
2021/06/23 06:52:54;;;;;;;10.90;4.40;;;29.00;53.80;;;;;;5084655;28;20262;-66
2021/06/23 06:55:21;;;;;;;9.47;4.00;;;29.10;53.60;;;;;;5082363;28;20221;-67
2021/06/23 06:57:52;;;;;;;11.90;4.30;;;29.30;53.20;;;;;;5082440;28;20628;-67
2021/06/23 07:00:21;;;;;;;8.90;4.00;;;29.40;52.60;;;;;;5081434;28;20603;-67
2021/06/23 07:02:49;;;;;;;7.90;3.73;;;29.60;52.50;;;;;;5080248;28;20237;-67
2021/06/23 07:05:16;;;;;;;9.40;4.60;;;29.70;52.80;;;;;;5080839;28;20214;-67
2021/06/23 07:07:43;;;;;;;9.33;3.83;;;29.90;52.20;;;;;;5081533;28;20205;-67
2021/06/23 07:10:11;;;;;;;11.90;4.87;;;29.90;52.40;;;;;;5086191;28;20250;-67
2021/06/23 07:12:38;;;;;;;10.43;4.30;;;30.00;52.00;;;;;;5081994;28;20213;-67
2021/06/23 07:15:06;;;;;;;12.00;4.70;;;30.20;51.70;;;;;;5083483;28;20267;-67
2021/06/23 07:17:33;;;;;;;9.50;3.77;;;30.30;51.30;;;;;;5083308;28;20285;-67
2021/06/23 07:20:01;;;;;;;8.73;3.80;;;30.30;51.70;;;;;;5081254;28;20217;-67
2021/06/23 07:22:28;;;;;;;10.07;4.37;;;30.40;51.80;;;;;;5083633;28;20237;-67
2021/06/23 07:24:55;;;;;;;12.03;4.90;;;30.50;51.50;;;;;;5082934;28;20611;-67
2021/06/23 07:27:22;;;;;;;10.80;4.50;;;30.40;51.70;;;;;;5081118;28;20574;-67
2021/06/23 07:29:50;;;;;;;11.83;4.93;;;30.40;51.40;;;;;;5083413;28;20278;-67
2021/06/23 07:32:28;;;;;;;10.73;5.03;;;30.50;50.80;;;;;;5079537;28;20273;-67
2021/06/23 07:37:41;;;;;;;16.20;5.20;;;30.30;51.00;;;;;;5085783;28;20635;-67
2021/06/23 07:40:09;;;;;;;6.27;3.90;;;30.40;52.20;;;;;;5085617;28;20290;-67
2021/06/23 07:42:36;;;;;;;15.97;4.37;;;30.60;51.90;;;;;;5088243;28;20241;-67
2021/06/23 07:45:05;;;;;;;14.80;4.83;;;30.70;50.40;;;;;;5086785;28;20205;-67
2021/06/23 07:47:35;;;;;;;11.43;5.10;;;30.70;51.30;;;;;;5087314;28;20215;-67
2021/06/23 07:50:04;;;;;;;12.03;4.70;;;30.80;51.20;;;;;;5087575;28;20274;-67
2021/06/23 07:53:18;;;;;;;11.53;4.90;;;31.00;50.70;;;;;;5085397;28;20646;-67
2021/06/23 08:11:47;;;;;;;9.27;4.40;;;32.20;49.00;;;;;;5085517;28;20251;-67
2021/06/23 08:14:14;;;;;;;8.50;4.10;;;32.20;48.00;;;;;;5088131;28;20536;-67
2021/06/23 08:16:41;;;;;;;11.93;4.43;;;32.10;48.40;;;;;;5075571;28;20218;-67
2021/06/23 08:19:08;;;;;;;7.20;3.97;;;32.20;49.00;;;;;;5075617;28;20213;-67
2021/06/23 08:21:35;;;;;;;12.73;4.50;;;32.40;48.90;;;;;;5075604;28;20206;-68
2021/06/23 08:24:03;;;;;;;14.40;4.40;;;32.60;47.80;;;;;;5075343;28;20302;-68
2021/06/23 08:26:30;;;;;;;10.27;3.77;;;32.60;48.30;;;;;;5075585;28;20206;-68
2021/06/23 08:28:57;;;;;;;7.60;3.93;;;32.70;48.10;;;;;;5082743;28;20630;-68
2021/06/23 08:31:24;;;;;;;8.97;3.60;;;32.80;47.50;;;;;;5078924;28;20275;-68
2021/06/23 08:33:53;;;;;;;9.33;4.93;;;33.00;47.70;;;;;;5085560;28;20220;-68
2021/06/23 08:36:20;;;;;;;9.37;3.80;;;33.10;47.80;;;;;;5082910;28;20232;-68
2021/06/23 08:38:47;;;;;;;10.93;3.43;;;33.20;47.00;;;;;;5084140;28;20218;-68
2021/06/23 08:41:14;;;;;;;14.87;4.63;;;33.30;46.60;;;;;;5089044;28;20308;-68
2021/06/23 08:43:41;;;;;;;8.80;3.43;;;33.50;47.20;;;;;;5086819;28;20233;-68
2021/06/23 08:46:09;;;;;;;10.03;4.77;;;33.60;46.00;;;;;;5084149;28;20222;-68
2021/06/23 08:48:37;;;;;;;10.10;3.97;;;33.70;45.00;;;;;;5085615;28;20197;-68
2021/06/23 08:51:07;;;;;;;10.67;3.87;;;33.60;45.30;;;;;;5086480;28;20234;-68
2021/06/23 08:53:34;;;;;;;7.63;3.90;;;33.50;46.60;;;;;;5084425;28;20697;-68
2021/06/23 08:56:04;;;;;;;10.90;3.83;;;33.60;45.60;;;;;;5084036;28;20214;-68
2021/06/23 08:58:31;;;;;;;9.97;4.10;;;33.60;45.30;;;;;;5086498;28;20573;-68
2021/06/23 09:00:59;;;;;;;9.67;3.77;;;33.70;45.30;;;;;;5082505;28;20655;-68
2021/06/23 09:03:26;;;;;;;7.67;3.13;;;33.70;44.40;;;;;;5086101;28;20335;-68
2021/06/23 09:05:56;;;;;;;8.20;3.23;;;33.70;44.10;;;;;;5085543;28;20630;-68
2021/06/23 09:08:38;;;;;;;4.20;2.67;;;33.70;44.30;;;;;;5084991;28;20209;-68
2021/06/23 09:11:20;;;;;;;9.60;3.00;;;34.00;43.90;;;;;;5084346;28;20221;-68
2021/06/23 09:13:47;;;;;;;5.77;2.87;;;34.20;43.40;;;;;;5086664;28;20564;-68
2021/06/23 09:16:14;;;;;;;6.73;3.17;;;34.40;42.70;;;;;;5084366;28;20214;-68
2021/06/23 09:18:42;;;;;;;15.67;2.77;;;34.60;42.10;;;;;;5086228;28;20237;-68
2021/06/23 09:21:18;;;;;;;8.63;2.80;;;34.70;41.60;;;;;;5085221;28;20227;-68
2021/06/23 09:23:48;;;;;;;8.10;2.70;;;34.80;42.10;;;;;;5085655;28;20232;-68
2021/06/23 09:26:18;;;;;;;7.90;3.10;;;34.90;41.80;;;;;;5084192;28;20528;-68
2021/06/23 09:29:05;;;;;;;5.77;2.27;;;35.00;41.60;;;;;;5082343;28;20232;-68
2021/06/23 09:32:05;;;;;;;4.40;2.23;;;35.10;40.80;;;;;;5082531;28;20638;-68
2021/06/23 09:34:46;;;;;;;11.37;2.57;;;35.20;40.80;;;;;;5084010;28;20618;-68
2021/06/23 09:37:29;;;;;;;5.47;2.20;;;35.30;40.70;;;;;;5083083;28;20210;-68
2021/06/23 09:40:30;;;;;;;5.23;1.97;;;35.30;39.20;;;;;;5074052;28;20221;-68
2021/06/23 09:43:02;;;;;;;5.23;2.83;;;35.30;39.70;;;;;;5067286;28;20241;-68
2021/06/23 09:45:30;;;;;;;6.60;2.87;;;35.20;40.60;;;;;;5073932;28;20298;-68
2021/06/23 09:48:08;;;;;;;2.83;2.00;;;35.30;40.20;;;;;;5084481;28;20784;-68
2021/06/23 09:50:36;;;;;;;12.23;2.40;;;35.40;39.70;;;;;;5083533;28;20206;-68
2021/06/23 09:53:05;;;;;;;4.43;2.03;;;35.60;39.50;;;;;;5083213;28;20217;-68
2021/06/23 09:55:39;;;;;;;6.80;2.00;;;35.70;38.90;;;;;;5085133;28;20216;-68
2021/06/23 09:58:17;;;;;;;8.20;2.30;;;35.70;36.90;;;;;;5085492;28;20205;-68
2021/06/23 10:00:59;;;;;;;9.67;2.20;;;35.60;38.10;;;;;;5085207;28;20536;-68
2021/06/23 10:03:26;;;;;;;3.63;1.67;;;35.70;38.40;;;;;;5082387;28;20234;-66
2021/06/23 10:05:53;;;;;;;2.57;1.70;;;35.80;35.60;;;;;;5080719;28;20241;-66
2021/06/23 10:08:22;;;;;;;4.87;1.97;;;35.60;36.00;;;;;;5084883;28;20205;-66
2021/06/23 10:10:50;;;;;;;5.40;2.30;;;35.50;36.10;;;;;;5082845;28;20602;-66
2021/06/23 10:13:18;;;;;;;6.47;2.10;;;35.50;36.40;;;;;;5086013;28;20220;-66
2021/06/23 10:15:50;;;;;;;8.80;2.10;;;35.40;36.70;;;;;;5081771;28;20710;-66
2021/06/23 10:18:19;;;;;;;4.90;1.83;;;35.50;36.90;;;;;;5083405;28;20230;-66
2021/06/23 10:20:48;;;;;;;5.60;1.90;;;35.60;36.20;;;;;;5084694;28;20349;-66
2021/06/23 10:23:16;;;;;;;5.17;1.90;;;35.80;36.40;;;;;;5082358;28;20625;-66
2021/06/23 10:25:44;;;;;;;2.60;1.90;;;35.80;36.20;;;;;;5082452;28;20219;-66
2021/06/23 10:28:12;;;;;;;3.87;1.80;;;35.80;34.70;;;;;;5084601;28;20292;-66
2021/06/23 10:30:40;;;;;;;3.07;1.67;;;35.80;35.90;;;;;;5084533;28;20213;-66
2021/06/23 10:33:08;;;;;;;7.23;2.10;;;35.90;36.60;;;;;;5080818;28;20214;-66
2021/06/23 10:35:35;;;;;;;6.43;2.07;;;36.10;36.50;;;;;;5081348;28;20213;-66
2021/06/23 10:38:05;;;;;;;4.53;1.80;;;36.30;36.20;;;;;;5062993;28;20229;-66
2021/06/23 10:40:33;;;;;;;2.90;1.60;;;36.40;35.30;;;;;;5061406;28;20221;-66
2021/06/23 10:43:14;;;;;;;5.83;2.00;;;36.40;35.80;;;;;;5063753;28;20934;-66
2021/06/23 10:45:43;;;;;;;3.83;2.10;;;36.50;34.80;;;;;;5064077;28;20828;-66
2021/06/23 10:48:11;;;;;;;3.40;1.60;;;36.60;35.40;;;;;;5063742;28;20310;-66
2021/06/23 10:50:39;;;;;;;5.43;1.97;;;36.60;35.00;;;;;;5061568;28;20659;-66
2021/06/23 10:53:32;;;;;;;3.43;1.40;;;36.60;34.50;;;;;;5061760;28;20218;-66
2021/06/23 10:56:03;;;;;;;6.27;2.20;;;36.60;34.90;;;;;;5062933;28;20222;-66
2021/06/23 10:58:32;;;;;;;8.57;2.20;;;36.50;33.60;;;;;;5061407;28;20288;-66
2021/06/23 11:01:10;;;;;;;3.90;1.80;;;36.30;35.20;;;;;;5061785;28;20264;-66
2021/06/23 11:04:03;;;;;;;9.73;2.50;;;36.30;35.70;;;;;;5064989;28;20245;-66
2021/06/23 11:06:42;;;;;;;9.37;2.17;;;36.40;34.70;;;;;;5058570;28;20206;-66
2021/06/23 11:09:26;;;;;;;6.53;2.33;;;36.40;34.50;;;;;;5064577;28;20640;-66
2021/06/23 11:11:55;;;;;;;3.17;2.10;;;36.50;35.00;;;;;;5065645;28;20217;-66
2021/06/23 11:14:24;;;;;;;5.80;1.90;;;36.40;34.00;;;;;;5066966;28;20277;-66
2021/06/23 11:16:51;;;;;;;7.70;2.00;;;36.00;34.30;;;;;;5067948;28;20270;-66
2021/06/23 11:19:18;;;;;;;8.13;2.40;;;35.60;34.20;;;;;;5065366;28;20578;-66
2021/06/23 11:21:46;;;;;;;5.87;2.53;;;35.40;35.00;;;;;;5066556;28;20266;-66
2021/06/23 11:24:15;;;;;;;5.53;2.30;;;35.30;34.40;;;;;;5067833;28;20331;-66
2021/06/23 11:26:47;;;;;;;6.33;2.30;;;35.40;34.10;;;;;;5065330;28;20207;-67
2021/06/23 11:29:17;;;;;;;5.10;1.90;;;35.50;34.30;;;;;;5065386;28;20640;-67
2021/06/23 11:32:09;;;;;;;5.77;2.47;;;35.60;35.40;;;;;;5064089;28;20267;-67
2021/06/23 11:34:39;;;;;;;4.93;2.10;;;35.80;34.90;;;;;;5063900;28;20301;-67
2021/06/23 11:37:09;;;;;;;4.10;2.13;;;35.80;34.70;;;;;;5064180;28;20210;-67
2021/06/23 11:39:36;;;;;;;9.67;2.27;;;35.70;35.40;;;;;;5065522;28;20210;-67
2021/06/23 11:42:05;;;;;;;3.77;2.20;;;35.60;34.60;;;;;;5065890;28;20215;-67
2021/06/23 11:44:34;;;;;;;3.63;2.10;;;35.50;34.40;;;;;;5067527;28;20295;-66
2021/06/23 11:47:02;;;;;;;5.63;2.13;;;35.40;34.50;;;;;;5065866;28;20230;-66
2021/06/23 11:49:34;;;;;;;7.90;2.60;;;35.30;34.20;;;;;;5069125;28;20216;-66
2021/06/23 11:52:03;;;;;;;6.63;2.40;;;35.20;34.30;;;;;;5063637;28;20605;-66
2021/06/23 11:54:30;;;;;;;6.80;2.37;;;35.20;35.30;;;;;;5066528;28;20614;-66
2021/06/23 11:56:58;;;;;;;8.03;2.00;;;35.20;34.30;;;;;;5064497;28;20663;-66
2021/06/23 11:59:25;;;;;;;5.83;2.00;;;35.10;34.60;;;;;;5066239;28;20222;-66
2021/06/23 12:01:52;;;;;;;4.57;2.23;;;35.00;33.20;;;;;;5063395;28;20276;-66
2021/06/23 12:04:19;;;;;;;4.33;1.83;;;35.00;33.50;;;;;;5067060;28;20241;-66
2021/06/23 12:06:46;;;;;;;5.20;2.30;;;35.10;34.10;;;;;;5063078;28;20715;-66
2021/06/23 12:09:13;;;;;;;6.77;2.30;;;35.20;34.80;;;;;;5063454;28;20229;-66
2021/06/23 12:11:42;;;;;;;3.00;1.70;;;35.40;33.70;;;;;;5067212;28;20210;-66
2021/06/23 12:14:10;;;;;;;3.23;1.80;;;35.30;32.70;;;;;;5069496;28;20249;-67
2021/06/23 12:16:37;;;;;;;6.17;2.03;;;35.10;33.30;;;;;;5066633;28;20214;-66
2021/06/23 12:19:04;;;;;;;6.57;2.13;;;35.10;34.70;;;;;;5067047;28;20300;-67
2021/06/23 12:21:32;;;;;;;6.13;2.33;;;35.10;34.60;;;;;;5065137;28;20221;-66
2021/06/23 12:23:59;;;;;;;3.43;2.23;;;35.20;34.80;;;;;;5063459;28;20245;-67
2021/06/23 12:26:26;;;;;;;5.40;1.83;;;35.30;34.00;;;;;;5066758;28;20213;-67
2021/06/23 12:28:53;;;;;;;3.73;2.10;;;35.30;34.10;;;;;;5065115;28;20207;-66
2021/06/23 12:31:20;;;;;;;7.50;1.90;;;35.20;33.90;;;;;;5063904;28;20222;-66
2021/06/23 12:33:47;;;;;;;3.63;2.13;;;35.20;33.40;;;;;;5067357;28;20276;-66
2021/06/23 12:36:15;;;;;;;6.53;1.80;;;35.00;33.80;;;;;;5063803;28;20565;-66
2021/06/23 12:38:42;;;;;;;5.87;2.00;;;35.00;34.40;;;;;;5064169;28;20218;-66
2021/06/23 12:41:10;;;;;;;4.17;2.10;;;35.10;34.70;;;;;;5066584;28;20220;-66
2021/06/23 12:43:37;;;;;;;4.23;1.90;;;35.20;34.50;;;;;;5064976;28;20280;-66
2021/06/23 12:46:05;;;;;;;4.10;2.00;;;35.20;34.00;;;;;;5063867;28;20604;-66
2021/06/23 12:48:32;;;;;;;7.33;2.10;;;35.30;34.60;;;;;;5064520;28;20308;-66
2021/06/23 12:50:59;;;;;;;6.97;2.27;;;35.40;33.50;;;;;;5066572;28;20205;-66
2021/06/23 12:53:26;;;;;;;4.50;2.13;;;35.40;33.30;;;;;;5061908;28;20835;-66
2021/06/23 12:55:53;;;;;;;5.43;2.10;;;35.40;33.80;;;;;;5066706;28;20221;-66
2021/06/23 12:58:20;;;;;;;4.93;2.07;;;35.30;33.90;;;;;;5066530;28;20225;-66
2021/06/23 13:00:47;;;;;;;3.93;2.00;;;35.20;32.80;;;;;;5061937;28;20210;-66
2021/06/23 13:03:16;;;;;;;3.47;2.23;;;35.10;33.40;;;;;;5059961;28;20549;-67
2021/06/23 13:05:43;;;;;;;3.00;1.70;;;35.10;31.90;;;;;;5063336;28;20255;-66
2021/06/23 13:08:10;;;;;;;2.90;1.53;;;35.00;32.30;;;;;;5060729;28;20211;-66
2021/06/23 13:10:37;;;;;;;10.30;1.80;;;35.10;33.50;;;;;;5062567;28;20294;-66
2021/06/23 13:13:04;;;;;;;4.37;2.10;;;35.20;32.70;;;;;;5063432;28;20259;-66